Wagner, Pennsylvania
Current Conditions -  °F | °C
As of 1:53 PM on Friday 31 Oct 2014 (Local Time) from KUNV Reporting Station
Overcast Overcast  
Wind Chill:   Ceiling: 6000
Heat Index:   Visibility: 10mi
Dew Point:   Wind: 5mph
Humidity: 66%   Direction: NA
Pressure: 29.9"   Gusts: NA
Location:  40.7125°N, 77.3707°W
Report Text: KUNV 311753Z VRB04KT 10SM OVC060 08/02 A2990
Loading
Personal Weather Stations






























Interactive Weather Map
Tropical Storm Tracking
New forecast layout! Learn more

10-Day Weather Forecast

Advertisements
Track Severe Weather on mobile